Terminal Aerodrome Forecast
Issued by NWS

Home | Current Version | Previous Version | Text Only | Print | Product List | Glossary On
Versions: 1 2 3 4 5 6 7 8 9 10 11 12 13 14 15 16 17
000
FTAK31 PAJN 251100
TAFAGY
TAF
PAGY 251126Z 2512/2612 21015G20KT P6SM -SHRA BKN030 OVC050
     FM251400 21020G30KT P6SM -SHRA BKN030 OVC050
     FM251600 21024G37KT P6SM -SHRA BKN030 OVC050
     FM260000 21018G30KT P6SM VCSH BKN050
     FM260500 21015G25KT P6SM VCSH BKN050
      AMD LTD TO CLD VIS AND WIND=

USA.gov is the U.S. government's official web portal to all federal, state and local government web resources and services.